NMSU Main Campus Data

Date Time Air Temperature Relative Humidity Dewpoint Heat Index Wind Speed Wind Dir. Rain Solar Radiation Soil Temperature
2m 2m 3m 3m 10cm
US/Mountain F % F F MPH deg in MJ/m^2 F
max avg avg
2021-02-23 00:05:00 38.9 33.4 12.5 38.9 0.0 0.0 0.0 228.3 0.0 0.00 0.0000423 50.9
2021-02-23 00:10:00 39.0 33.5 12.6 39.0 0.0 0.0 0.0 230.5 0.0 0.00 0.0000362 50.8
2021-02-23 00:15:00 38.4 33.7 12.3 38.4 0.0 0.0 0.0 228.5 0.0 0.00 0.0000282 50.8
2021-02-23 00:20:00 38.8 33.1 12.2 38.8 0.0 0.0 0.0 85.2 0.0 0.00 0.0000403 50.7
2021-02-23 00:25:00 38.8 33.2 12.3 38.8 0.0 0.0 0.0 99.1 0.0 0.00 0.0000382 50.6
2021-02-23 00:30:00 39.2 32.8 12.4 39.2 0.0 0.0 0.0 125.1 0.0 0.00 0.0000423 50.5
2021-02-23 00:35:00 38.9 33.4 12.5 38.9 0.0 0.0 0.0 127.3 0.0 0.00 0.0000362 50.5
2021-02-23 00:40:00 38.6 35.0 13.2 38.6 0.0 0.0 0.0 165.2 0.0 0.00 0.0000403 50.4
2021-02-23 00:45:00 38.3 35.2 13.1 38.3 0.0 0.0 0.0 208.5 0.0 0.00 0.0000403 50.3
2021-02-23 00:50:00 38.0 35.3 13.0 38.0 0.0 0.0 0.0 208.0 0.0 0.00 0.0000503 50.3
2021-02-23 00:55:00 37.8 35.3 12.8 37.8 0.0 0.0 0.0 207.9 0.0 0.00 0.0000463 50.2
2021-02-23 01:00:00 37.5 36.6 13.3 37.5 0.0 0.0 0.0 256.5 0.0 0.00 0.0000483 50.1
2021-02-23 01:05:00 36.9 37.0 13.0 36.9 0.0 0.0 0.0 256.4 0.0 0.00 0.0000443 50.0
2021-02-23 01:10:00 36.9 37.5 13.3 36.9 0.0 0.0 0.0 326.8 0.0 0.00 0.0000443 50.0
2021-02-23 01:15:00 37.8 38.2 14.5 37.8 0.0 1.3 0.1 340.3 357.3 0.00 0.0000423 49.9
2021-02-23 01:20:00 37.7 37.0 13.7 37.7 0.0 0.0 0.0 55.9 0.0 0.00 0.0000342 49.8
2021-02-23 01:25:00 37.8 36.0 13.2 37.8 0.0 0.0 0.0 69.4 0.0 0.00 0.0000322 49.7
2021-02-23 01:30:00 37.9 37.2 14.1 37.9 0.0 0.0 0.0 69.5 0.0 0.00 0.0000282 49.7
2021-02-23 01:35:00 37.4 37.5 13.8 37.4 0.0 0.0 0.0 289.3 0.0 0.00 0.0000403 49.6
2021-02-23 01:40:00 37.5 36.9 13.5 37.5 0.0 0.0 0.0 244.2 0.0 0.00 0.0000161 49.5
2021-02-23 01:45:00 37.9 36.8 13.8 37.9 0.0 0.0 0.0 275.6 0.0 0.00 0.0000141 49.5
2021-02-23 01:50:00 37.7 38.7 14.7 37.7 0.0 0.0 0.0 328.8 0.0 0.00 0.0000101 49.4
2021-02-23 01:55:00 36.9 39.8 14.7 36.9 0.0 0.0 0.0 228.1 0.0 0.00 0.0000242 49.3
2021-02-23 02:00:00 36.6 39.7 14.3 36.6 0.0 0.0 0.0 134.3 0.0 0.00 0.0000201 49.2
2021-02-23 02:05:00 36.3 40.5 14.6 36.3 0.0 0.0 0.0 155.6 0.0 0.00 0.0000362 49.2
2021-02-23 02:10:00 35.7 41.8 14.8 35.7 0.0 0.0 0.0 155.5 0.0 0.00 0.0000483 49.1
2021-02-23 02:15:00 35.2 42.0 14.3 35.2 0.0 0.0 0.0 155.5 0.0 0.00 0.0000463 49.1
2021-02-23 02:20:00 35.2 41.7 14.2 35.2 0.0 0.0 0.0 149.2 0.0 0.00 0.0000463 49.0
2021-02-23 02:25:00 35.4 42.2 14.7 35.4 0.0 0.0 0.0 168.8 0.0 0.00 0.0000403 48.9
2021-02-23 02:30:00 34.8 45.4 15.8 34.8 0.0 0.8 0.0 205.2 171.5 0.00 0.0000382 48.9
2021-02-23 02:35:00 34.5 43.7 14.7 34.5 0.0 0.0 0.0 206.4 0.0 0.00 0.0000322 48.8
2021-02-23 02:40:00 34.8 42.8 14.4 34.8 0.0 0.0 0.0 225.5 0.0 0.00 0.0000503 48.7
2021-02-23 02:45:00 35.0 42.0 14.2 35.0 0.0 0.0 0.0 189.8 0.0 0.00 0.0000382 48.7
2021-02-23 02:50:00 34.4 43.3 14.3 34.4 0.0 0.0 0.0 104.7 0.0 0.00 0.0000342 48.6
2021-02-23 02:55:00 34.3 43.0 14.1 34.3 0.0 0.0 0.0 85.2 0.0 0.00 0.0000362 48.5
2021-02-23 03:00:00 34.3 43.6 14.4 34.3 0.0 0.0 0.0 86.2 0.0 0.00 0.0000423 48.5
2021-02-23 03:05:00 34.4 42.5 13.9 34.4 0.0 0.0 0.0 118.5 0.0 0.00 0.0000383 48.4
2021-02-23 03:10:00 34.0 42.2 13.4 34.0 0.0 0.0 0.0 305.0 0.0 0.00 0.0000242 48.3
2021-02-23 03:15:00 34.4 41.8 13.5 34.4 0.0 0.0 0.0 298.6 0.0 0.00 0.0000201 48.3
2021-02-23 03:20:00 34.6 41.9 13.7 34.6 1.0 1.7 0.2 332.4 338.5 0.00 0.0000302 48.2
2021-02-23 03:25:00 34.5 43.5 14.5 34.5 0.0 1.7 0.5 326.1 350.6 0.00 0.0000221 48.2
2021-02-23 03:30:00 34.3 43.3 14.3 34.3 0.0 0.8 0.0 305.9 321.8 0.00 0.0000060 48.1
2021-02-23 03:35:00 34.1 41.1 12.9 34.1 0.0 0.0 0.0 281.8 0.0 0.00 0.0000040 48.0
2021-02-23 03:40:00 33.7 42.0 13.0 33.7 0.0 0.0 0.0 227.6 0.0 0.00 0.0000121 48.0
2021-02-23 03:45:00 33.8 42.8 13.6 33.8 0.0 0.0 0.0 202.0 0.0 0.00 0.0000081 47.9
2021-02-23 03:50:00 33.5 41.5 12.6 33.5 0.0 0.0 0.0 158.6 0.0 0.00 0.0000081 47.9
2021-02-23 03:55:00 33.8 42.3 13.2 33.8 0.0 0.0 0.0 140.6 0.0 0.00 0.0000101 47.8
2021-02-23 04:00:00 33.6 39.7 11.6 33.6 0.0 0.0 0.0 130.3 0.0 0.00 0.0000081 47.8
2021-02-23 04:05:00 33.4 38.5 10.7 33.4 0.0 0.0 0.0 118.3 0.0 0.00 0.0000201 47.7
2021-02-23 04:10:00 33.6 39.2 11.4 33.6 0.0 0.0 0.0 73.5 0.0 0.00 0.0000101 47.6
2021-02-23 04:15:00 34.0 38.7 11.4 34.0 0.0 0.0 0.0 5.9 0.0 0.00 0.0000181 47.6
2021-02-23 04:20:00 33.8 38.7 11.3 33.8 0.0 0.0 0.0 273.8 0.0 0.00 0.0000222 47.5
2021-02-23 04:25:00 33.5 39.3 11.3 33.5 0.0 0.0 0.0 327.5 0.0 0.00 0.0000121 47.5
2021-02-23 04:30:00 33.7 39.5 11.7 33.7 0.0 1.9 0.9 330.8 327.5 0.00 0.0000121 47.4
2021-02-23 04:35:00 33.2 39.9 11.4 33.2 0.0 0.0 0.0 329.9 0.0 0.00 0.0000060 47.3
2021-02-23 04:40:00 33.1 39.8 11.3 33.1 0.0 0.0 0.0 241.9 0.0 0.00 0.0000060 47.3
2021-02-23 04:45:00 33.3 38.5 10.7 33.3 0.0 0.0 0.0 294.7 0.0 0.00 0.0000101 47.2
2021-02-23 04:50:00 33.1 39.3 11.0 33.1 0.0 0.0 0.0 271.6 0.0 0.00 0.0000201 47.2
2021-02-23 04:55:00 33.0 38.1 10.2 33.0 0.0 0.0 0.0 259.0 0.0 0.00 0.0000201 47.1
2021-02-23 05:00:00 32.8 39.5 10.8 32.8 0.0 0.0 0.0 86.8 0.0 0.00 0.0000121 47.0
2021-02-23 05:05:00 32.6 39.3 10.5 32.6 0.0 0.0 0.0 330.9 0.0 0.00 0.0000302 47.0
2021-02-23 05:10:00 32.8 39.3 10.7 32.8 0.0 1.7 0.7 329.2 338.2 0.00 0.0000322 46.9
2021-02-23 05:15:00 32.5 40.1 10.8 32.5 0.0 0.8 0.1 334.9 328.1 0.00 0.0000222 46.9
2021-02-23 05:20:00 32.5 41.4 11.6 32.5 0.0 0.0 0.0 335.6 0.0 0.00 0.0000282 46.8
2021-02-23 05:25:00 31.8 41.6 11.1 31.8 0.0 0.0 0.0 335.5 0.0 0.00 0.0000161 46.8
2021-02-23 05:30:00 31.4 41.6 10.7 31.4 0.0 0.0 0.0 335.5 0.0 0.00 0.0000201 46.7
2021-02-23 05:35:00 31.1 41.7 10.5 31.1 0.0 0.0 0.0 329.4 0.0 0.00 0.0000342 46.7
2021-02-23 05:40:00 31.2 42.4 11.0 31.2 0.0 0.0 0.0 2.4 0.0 0.00 0.0000282 46.6
2021-02-23 05:45:00 31.0 43.3 11.3 31.0 0.0 0.0 0.0 307.9 0.0 0.00 0.0000242 46.5
2021-02-23 05:50:00 31.2 43.7 11.7 31.2 0.0 0.0 0.0 339.4 0.0 0.00 0.0000282 46.5
2021-02-23 05:55:00 31.4 43.0 11.4 31.4 0.0 0.0 0.0 328.3 0.0 0.00 0.0000181 46.4
2021-02-23 06:00:00 30.9 42.0 10.5 30.9 0.0 0.0 0.0 271.6 0.0 0.00 0.0000161 46.4
2021-02-23 06:05:00 31.2 41.6 10.6 31.2 0.0 0.0 0.0 197.5 0.0 0.00 0.0000141 46.3
2021-02-23 06:10:00 31.5 41.7 10.8 31.5 0.0 0.0 0.0 220.8 0.0 0.00 0.0000222 46.3
2021-02-23 06:15:00 31.4 41.2 10.5 31.4 0.0 0.0 0.0 5.0 0.0 0.00 0.0000201 46.2
2021-02-23 06:20:00 31.7 40.8 10.6 31.7 1.5 2.8 1.8 323.8 334.1 0.00 0.0000544 46.1
2021-02-23 06:25:00 31.6 41.9 11.1 31.6 0.0 1.0 0.1 9.3 333.6 0.00 0.0000664 46.1
2021-02-23 06:30:00 31.7 42.3 11.4 31.7 0.0 0.0 0.0 334.4 0.0 0.00 0.0002255 46.1
2021-02-23 06:35:00 31.3 43.4 11.6 31.3 0.0 0.0 0.0 306.8 0.0 0.00 0.0005235 46.0
2021-02-23 06:40:00 31.0 43.7 11.5 31.0 0.0 0.0 0.0 205.9 0.0 0.00 0.0010551 45.9
2021-02-23 06:45:00 30.8 44.0 11.4 30.8 0.0 0.0 0.0 130.7 0.0 0.00 0.0016431 45.9
2021-02-23 06:50:00 30.4 43.4 10.8 30.4 0.0 0.0 0.0 130.6 0.0 0.00 0.0021969 45.8
2021-02-23 06:55:00 30.8 42.9 10.9 30.8 0.0 0.0 0.0 87.4 0.0 0.00 0.0027607 45.8
2021-02-23 07:00:00 30.8 43.4 11.1 30.8 0.0 0.0 0.0 198.6 0.0 0.00 0.0048206 45.7
2021-02-23 07:05:00 31.6 41.8 11.0 31.6 0.0 0.8 0.1 168.6 224.6 0.00 0.0082620 45.7
2021-02-23 07:10:00 32.1 41.1 11.1 32.1 0.0 0.0 0.0 239.8 0.0 0.00 0.0143088 45.6
2021-02-23 07:15:00 33.1 39.3 10.9 33.1 0.0 0.0 0.0 259.8 0.0 0.00 0.0223812 45.6
2021-02-23 07:20:00 33.8 39.7 11.8 33.8 0.8 1.9 0.5 258.8 282.8 0.00 0.0288088 45.5
2021-02-23 07:25:00 33.7 39.8 11.8 33.7 3.5 4.2 2.1 309.6 292.4 0.00 0.0348696 45.5
2021-02-23 07:30:00 34.0 41.5 13.0 34.0 3.0 4.4 2.7 292.9 294.7 0.00 0.0401572 45.4
2021-02-23 07:35:00 34.1 38.7 11.6 34.1 2.8 4.0 2.8 293.2 291.7 0.00 0.0450827 45.3
2021-02-23 07:40:00 34.9 40.7 13.4 34.9 1.3 3.3 1.8 321.6 298.9 0.00 0.0501363 45.3
2021-02-23 07:45:00 35.7 35.2 10.8 35.7 2.6 4.2 2.1 315.5 310.4 0.00 0.0552868 45.3
2021-02-23 07:50:00 36.5 38.9 13.7 36.5 2.6 3.1 2.3 302.1 305.3 0.00 0.0605633 45.2
2021-02-23 07:55:00 37.3 34.0 11.5 37.3 3.5 4.0 2.4 290.3 291.0 0.00 0.0658321 45.2
2021-02-23 08:00:00 38.1 33.8 12.0 38.1 2.8 4.2 2.9 291.3 289.5 0.00 0.0712865 45.1
2021-02-23 08:05:00 39.1 35.7 14.1 39.1 0.0 3.3 2.0 287.8 302.0 0.00 0.0769873 45.1
2021-02-23 08:10:00 40.0 32.4 12.8 40.0 3.8 4.7 2.1 306.5 306.2 0.00 0.0821801 45.0
2021-02-23 08:15:00 41.0 29.6 11.6 41.0 2.1 4.4 3.1 316.7 308.1 0.00 0.0874871 45.0
2021-02-23 08:20:00 42.4 28.1 11.7 42.4 2.4 4.2 2.8 314.6 314.2 0.00 0.0928458 45.0
2021-02-23 08:25:00 44.1 25.8 11.2 44.1 4.9 5.1 3.2 4.6 343.9 0.00 0.0984825 44.9
2021-02-23 08:30:00 44.9 27.0 12.9 44.9 3.7 5.8 4.3 333.2 329.7 0.00 0.1038759 44.9
2021-02-23 08:35:00 45.6 24.6 11.4 45.6 5.5 6.0 3.6 9.8 330.8 0.00 0.1093254 44.9
2021-02-23 08:40:00 46.2 26.5 13.6 46.2 3.5 7.1 3.7 322.0 324.6 0.00 0.1145577 44.9
2021-02-23 08:45:00 46.3 24.5 11.8 46.3 4.6 6.5 4.5 1.2 308.1 0.00 0.1197499 44.8
2021-02-23 08:50:00 46.4 24.7 12.2 46.4 7.1 7.1 4.5 316.3 310.0 0.00 0.1252535 44.8
2021-02-23 08:55:00 46.7 24.3 12.1 46.7 4.0 6.9 4.6 295.8 304.4 0.00 0.1311554 44.8
2021-02-23 09:00:00 47.6 23.2 11.8 47.6 3.7 5.8 4.0 252.5 307.7 0.00 0.1340923 44.9
2021-02-23 09:05:00 47.6 26.1 14.5 47.6 2.2 6.2 3.2 296.3 294.6 0.00 0.1445960 44.9
2021-02-23 09:10:00 48.4 25.6 14.7 48.4 4.2 5.5 3.6 314.0 294.4 0.00 0.1470463 44.9
2021-02-23 09:15:00 48.8 23.2 12.8 48.8 2.6 4.2 2.7 318.4 298.9 0.00 0.1496435 44.9
2021-02-23 09:20:00 49.6 23.3 13.6 49.6 1.7 4.0 2.3 232.5 286.2 0.00 0.1522677 44.9
2021-02-23 09:25:00 50.2 22.5 13.2 50.2 3.8 3.8 2.5 240.3 267.4 0.00 0.1576399 44.9
2021-02-23 09:30:00 50.3 21.7 12.5 50.3 3.8 5.1 3.7 265.1 270.5 0.00 0.1620391 45.0
2021-02-23 09:35:00 50.3 22.1 13.0 50.3 4.0 5.5 3.9 226.8 253.8 0.00 0.1662944 45.0
2021-02-23 09:40:00 50.8 22.4 13.7 50.8 2.8 5.1 3.6 275.2 262.0 0.00 0.1704926 45.1
2021-02-23 09:45:00 51.0 21.5 12.9 51.0 3.8 5.1 3.6 230.1 244.1 0.00 0.1745905 45.1
2021-02-23 09:50:00 52.0 21.3 13.6 52.0 4.6 5.6 3.7 268.7 269.0 0.00 0.1784104 45.2
2021-02-23 09:55:00 52.1 20.6 12.9 52.1 3.5 4.0 3.2 255.5 264.6 0.00 0.1824521 45.3
2021-02-23 10:00:00 52.5 22.3 15.1 52.5 3.0 6.0 3.7 286.3 297.6 0.00 0.1862700 45.4
2021-02-23 10:05:00 53.1 19.8 12.8 53.1 0.0 4.9 2.2 290.6 291.4 0.00 0.1900780 45.4
2021-02-23 10:10:00 53.9 19.1 12.7 53.9 4.0 4.7 2.6 292.0 252.4 0.00 0.1940732 45.5
2021-02-23 10:15:00 54.1 19.0 12.8 54.1 0.0 3.7 1.6 193.3 253.5 0.00 0.1975334 45.6
2021-02-23 10:20:00 55.7 18.1 12.8 55.7 1.9 2.4 1.2 235.4 291.8 0.00 0.2014550 45.7
2021-02-23 10:25:00 56.9 16.5 11.9 56.9 2.6 3.1 1.6 174.8 243.4 0.00 0.2066472 45.8
2021-02-23 10:30:00 56.7 16.2 11.2 56.7 0.0 3.1 1.5 181.5 186.7 0.00 0.2062771 45.9
2021-02-23 10:35:00 57.3 15.1 10.1 57.3 1.5 3.3 1.0 317.7 219.6 0.00 0.2121947 46.0
2021-02-23 10:40:00 57.6 16.0 11.6 57.6 0.0 2.6 1.1 15.9 334.9 0.00 0.2143895 46.1
2021-02-23 10:45:00 58.8 14.1 9.8 58.8 1.7 2.2 0.5 179.2 231.5 0.00 0.2166446 46.3
2021-02-23 10:50:00 58.9 14.5 10.4 58.9 0.0 3.0 1.3 197.6 195.8 0.00 0.2192759 46.4
2021-02-23 10:55:00 59.0 14.3 10.3 59.0 0.8 2.8 0.9 110.0 118.0 0.00 0.2217658 46.5
2021-02-23 11:00:00 60.0 14.0 10.7 60.0 0.0 4.0 1.1 165.1 112.2 0.00 0.2236813 46.7
2021-02-23 11:05:00 61.0 13.3 10.2 61.0 0.0 2.4 0.4 308.7 137.5 0.00 0.2262021 46.8
2021-02-23 11:10:00 60.7 13.5 10.4 60.7 1.3 3.1 1.8 50.8 15.0 0.00 0.2288780 46.9
2021-02-23 11:15:00 61.9 11.7 8.1 61.9 1.7 2.6 0.6 121.4 120.1 0.00 0.2311726 47.1
2021-02-23 11:20:00 61.3 12.9 9.7 61.3 2.8 5.1 2.8 188.5 191.8 0.00 0.2324109 47.2
2021-02-23 11:25:00 61.6 13.1 10.4 61.6 2.2 4.6 2.1 67.4 196.5 0.00 0.2340035 47.4
2021-02-23 11:30:00 61.9 12.9 10.3 61.9 2.1 5.6 3.3 137.0 121.7 0.00 0.2355294 47.6
2021-02-23 11:35:00 62.1 12.3 9.3 62.1 0.0 4.2 1.8 203.3 151.0 0.00 0.2369436 47.7
2021-02-23 11:40:00 63.0 12.2 10.0 63.0 1.7 3.5 1.6 227.1 219.5 0.00 0.2382127 47.9
2021-02-23 11:45:00 63.3 12.0 9.8 63.3 0.8 2.6 0.5 63.8 236.2 0.00 0.2395073 48.1
2021-02-23 11:50:00 63.2 12.0 9.8 63.2 1.5 5.3 1.9 181.9 208.2 0.00 0.2407951 48.2
2021-02-23 11:55:00 63.7 12.5 11.0 63.7 5.1 5.1 2.8 164.1 143.4 0.00 0.2415887 48.4
2021-02-23 12:00:00 63.5 12.1 10.0 63.5 3.1 4.6 2.4 111.6 126.5 0.00 0.2420796 48.6
2021-02-23 12:05:00 64.2 11.4 9.3 64.2 1.0 5.1 2.1 201.7 147.0 0.00 0.2428257 48.8
2021-02-23 12:10:00 64.8 12.2 11.2 64.8 1.5 5.3 2.9 119.2 200.9 0.00 0.2436834 49.0
2021-02-23 12:15:00 65.4 11.3 10.0 65.4 2.2 4.9 1.9 136.5 169.5 0.00 0.2436596 49.1
2021-02-23 12:20:00 65.3 11.4 10.3 65.3 1.0 4.7 2.5 287.5 152.6 0.00 0.2440230 49.3
2021-02-23 12:25:00 65.9 10.9 9.7 65.9 4.7 5.6 2.7 180.2 180.7 0.00 0.2440605 49.5
2021-02-23 12:30:00 66.2 9.8 7.5 66.2 1.7 6.7 3.5 128.5 193.1 0.00 0.2441423 49.7
2021-02-23 12:35:00 66.9 10.6 9.7 66.9 2.2 5.5 2.4 201.0 159.8 0.00 0.2439393 49.9
2021-02-23 12:40:00 67.2 8.9 6.1 67.2 6.5 7.2 4.5 227.9 206.6 0.00 0.2436854 50.1
2021-02-23 12:45:00 67.8 10.0 9.1 67.8 3.0 6.7 3.1 192.0 206.2 0.00 0.2429790 50.3
2021-02-23 12:50:00 68.2 9.1 7.5 68.2 3.0 6.7 3.3 185.8 180.1 0.00 0.2425958 50.4
2021-02-23 12:55:00 68.1 9.1 7.2 68.1 2.4 5.6 2.4 111.6 142.8 0.00 0.2421543 50.6
2021-02-23 13:00:00 68.5 8.4 5.8 68.5 4.7 7.4 4.0 218.3 224.7 0.00 0.2409513 50.8
2021-02-23 13:05:00 68.6 9.3 8.2 68.6 1.7 10.6 5.1 46.7 198.8 0.00 0.2393639 51.0
2021-02-23 13:10:00 68.6 8.4 5.9 68.6 0.0 5.8 2.9 132.0 142.4 0.00 0.2380440 51.2
2021-02-23 13:15:00 68.7 8.2 5.5 68.7 3.5 3.7 1.3 99.2 95.1 0.00 0.2369643 51.4
2021-02-23 13:20:00 69.2 9.0 8.0 69.2 5.5 14.0 6.6 202.3 186.2 0.00 0.2356857 51.5
2021-02-23 13:25:00 69.8 8.6 7.3 69.8 4.4 6.2 4.1 192.9 184.2 0.00 0.2338145 51.7
2021-02-23 13:30:00 69.9 8.8 7.9 69.9 2.4 5.8 3.4 165.9 158.6 0.00 0.2320959 51.9
2021-02-23 13:35:00 70.1 8.1 6.2 70.1 4.7 8.8 4.5 246.2 201.0 0.00 0.2300999 52.0
2021-02-23 13:40:00 70.2 8.6 7.7 70.2 6.5 7.6 4.9 229.5 225.4 0.00 0.2277354 52.2
2021-02-23 13:45:00 70.5 8.7 8.2 70.5 2.6 9.4 5.3 155.5 200.7 0.00 0.2259042 52.4
2021-02-23 13:50:00 71.1 7.9 6.6 71.1 5.6 6.2 3.2 193.7 180.8 0.00 0.2236613 52.5
2021-02-23 13:55:00 71.3 6.3 1.7 71.3 6.7 11.3 5.4 217.9 204.2 0.00 0.2216347 52.7
2021-02-23 14:00:00 72.2 6.1 1.8 72.2 8.5 8.5 5.5 263.4 227.6 0.00 0.2188959 52.8
2021-02-23 14:05:00 71.8 6.3 2.1 71.8 10.1 10.5 7.8 224.6 233.0 0.00 0.2164112 53.0
2021-02-23 14:10:00 71.7 6.1 1.2 71.7 8.7 10.3 7.4 209.3 212.5 0.00 0.2137219 53.2
2021-02-23 14:15:00 71.7 5.6 -0.5 71.7 7.6 11.0 8.1 234.6 241.5 0.00 0.2102009 53.3
2021-02-23 14:20:00 71.7 5.8 0.1 71.7 11.3 13.5 8.8 235.2 245.8 0.00 0.2073445 53.5
2021-02-23 14:25:00 71.5 6.0 0.8 71.5 6.7 11.5 8.1 201.1 231.4 0.00 0.2041232 53.6
2021-02-23 14:30:00 72.3 6.1 1.8 72.3 6.9 10.3 6.5 219.7 235.1 0.00 0.2007965 53.8
2021-02-23 14:35:00 71.4 5.8 0.0 71.4 9.7 14.6 8.5 242.5 213.5 0.00 0.1972316 53.9
2021-02-23 14:40:00 71.8 6.1 1.4 71.8 9.0 10.8 7.7 223.6 243.2 0.00 0.1937184 54.0
2021-02-23 14:45:00 72.4 5.8 0.7 72.4 6.2 11.9 7.6 221.5 223.3 0.00 0.1903587 54.2
2021-02-23 14:50:00 71.8 5.7 0.0 71.8 8.0 12.1 8.7 239.2 215.1 0.00 0.1868903 54.3
2021-02-23 14:55:00 72.1 5.9 0.8 72.1 7.8 11.3 8.5 223.0 241.2 0.00 0.1825910 54.4
2021-02-23 15:00:00 72.5 5.7 0.5 72.5 10.5 10.5 7.2 219.8 237.6 0.00 0.1785038 54.6
2021-02-23 15:05:00 72.1 5.9 0.8 72.1 7.8 10.8 7.7 250.5 242.8 0.00 0.1745200 54.7
2021-02-23 15:10:00 72.0 6.1 1.6 72.0 6.7 12.1 8.5 227.4 238.5 0.00 0.1699565 54.8
2021-02-23 15:15:00 72.1 6.1 1.7 72.1 3.5 9.7 6.2 223.0 226.9 0.00 0.1654468 54.9
2021-02-23 15:20:00 72.7 5.9 1.4 72.7 5.8 10.8 6.5 244.5 234.4 0.00 0.1608633 55.0
2021-02-23 15:25:00 72.5 6.1 2.0 72.5 9.2 11.7 7.0 233.0 235.9 0.00 0.1568049 55.1
2021-02-23 15:30:00 72.5 5.8 0.8 72.5 8.1 12.8 8.4 266.4 244.9 0.00 0.1514185 55.3
2021-02-23 15:35:00 73.3 6.0 2.0 73.3 6.3 10.5 6.3 224.4 232.1 0.00 0.1465151 55.4
2021-02-23 15:40:00 73.3 6.0 2.1 73.3 6.7 9.4 6.4 278.9 238.6 0.00 0.1420679 55.5
2021-02-23 15:45:00 73.4 5.5 0.3 73.4 10.8 11.9 8.0 217.6 241.7 0.00 0.1375068 55.6
2021-02-23 15:50:00 73.6 5.3 -0.2 73.6 6.2 12.4 6.8 260.8 233.7 0.00 0.1324571 55.7
2021-02-23 15:55:00 73.5 5.5 0.2 73.5 8.0 12.4 8.1 242.5 238.8 0.00 0.1277175 55.8
2021-02-23 16:00:00 73.6 6.0 2.2 73.6 8.7 10.3 6.5 226.7 216.0 0.00 0.1222465 55.9
2021-02-23 16:05:00 73.6 5.7 1.1 73.6 8.7 10.3 8.0 204.5 231.7 0.00 0.1168429 56.0
2021-02-23 16:10:00 73.5 5.6 0.6 73.5 8.1 10.8 7.5 217.0 224.7 0.00 0.1115228 56.1
2021-02-23 16:15:00 73.5 5.3 -0.4 73.5 8.0 9.7 6.8 255.5 236.7 0.00 0.1066692 56.2
2021-02-23 16:20:00 73.9 4.7 -2.9 73.9 10.6 11.7 7.9 247.1 241.7 0.00 0.1013295 56.2
2021-02-23 16:25:00 73.9 4.7 -2.7 73.9 5.6 12.4 8.4 259.5 239.9 0.00 0.0960212 56.3
2021-02-23 16:30:00 73.5 4.5 -4.0 73.5 10.8 14.0 10.1 244.0 242.2 0.00 0.0906850 56.4
2021-02-23 16:35:00 73.4 4.4 -4.6 73.4 8.3 14.0 11.2 260.5 246.8 0.00 0.0858299 56.5
2021-02-23 16:40:00 73.3 4.1 -5.9 73.3 10.3 16.2 11.1 254.6 241.2 0.00 0.0804354 56.5
2021-02-23 16:45:00 73.0 4.2 -5.6 73.0 9.4 13.3 10.1 234.1 241.1 0.00 0.0749591 56.6
2021-02-23 16:50:00 73.1 4.6 -3.7 73.1 7.2 17.1 10.5 220.0 249.7 0.00 0.0697490 56.7
2021-02-23 16:55:00 72.7 4.6 -4.2 72.7 9.4 14.6 11.0 226.8 244.3 0.00 0.0646020 56.7
2021-02-23 17:00:00 72.9 4.9 -2.4 72.9 4.2 12.1 8.7 283.9 246.3 0.00 0.0595142 56.8
2021-02-23 17:05:00 72.8 4.6 -4.1 72.8 8.1 12.8 9.4 240.8 243.8 0.00 0.0541402 56.8
2021-02-23 17:10:00 72.4 4.9 -2.9 72.4 6.2 11.2 7.5 223.7 246.8 0.00 0.0488405 56.9
2021-02-23 17:15:00 72.4 4.8 -3.2 72.4 6.9 10.6 7.8 248.8 247.1 0.00 0.0436701 56.9
2021-02-23 17:20:00 72.4 5.0 -2.6 72.4 6.7 8.8 5.6 248.6 243.1 0.00 0.0383335 57.0
2021-02-23 17:25:00 72.1 5.1 -2.1 72.1 4.9 10.3 6.0 253.2 251.3 0.00 0.0320945 57.0
2021-02-23 17:30:00 71.9 5.1 -2.3 71.9 5.3 12.2 6.1 250.1 248.1 0.00 0.0255780 57.0
2021-02-23 17:35:00 71.4 5.4 -1.6 71.4 6.7 11.7 6.1 261.7 247.1 0.00 0.0194131 57.0
2021-02-23 17:40:00 70.9 5.6 -1.0 70.9 3.7 10.3 6.8 228.8 244.8 0.00 0.0138927 57.0
2021-02-23 17:45:00 70.6 5.9 -0.1 70.6 5.6 11.5 6.3 224.7 253.7 0.00 0.0094025 57.1
2021-02-23 17:50:00 70.0 5.9 -0.5 70.0 5.6 10.8 6.3 242.7 239.3 0.00 0.0061834 57.1
2021-02-23 17:55:00 69.7 6.0 -0.4 69.7 4.9 9.6 6.2 238.8 242.4 0.00 0.0031008 57.1
2021-02-23 18:00:00 69.2 5.5 -2.8 69.2 7.4 10.5 7.5 232.0 244.2 0.00 0.0019199 57.1
2021-02-23 18:05:00 69.2 5.1 -4.2 69.2 4.9 7.4 5.4 250.3 246.1 0.00 0.0011488 57.1
2021-02-23 18:10:00 68.8 5.4 -3.4 68.8 3.5 6.7 4.3 327.2 249.9 0.00 0.0006206 57.1
2021-02-23 18:15:00 68.1 5.5 -3.5 68.1 2.6 6.9 4.6 228.6 246.0 0.00 0.0003314 57.1
2021-02-23 18:20:00 68.0 5.3 -4.3 68.0 5.8 7.1 5.1 251.4 247.1 0.00 0.0001446 57.1
2021-02-23 18:25:00 67.8 5.2 -4.8 67.8 6.5 8.1 5.6 279.1 253.1 0.00 0.0000321 57.1
2021-02-23 18:30:00 67.5 5.5 -4.1 67.5 4.4 8.7 6.5 257.0 244.6 0.00 0.0000000 57.1
2021-02-23 18:35:00 67.1 5.6 -3.9 67.1 4.0 7.6 4.5 238.0 246.4 0.00 0.0000000 57.1
2021-02-23 18:40:00 66.4 6.1 -2.7 66.4 2.6 4.6 3.0 277.5 254.7 0.00 0.0000000 57.0
2021-02-23 18:45:00 65.6 6.1 -3.0 65.6 3.3 3.3 1.5 269.9 259.5 0.00 0.0000000 57.0
2021-02-23 18:50:00 65.0 6.7 -1.5 65.0 1.2 3.1 0.5 270.7 281.4 0.00 0.0000000 57.0
2021-02-23 18:55:00 64.7 6.5 -2.3 64.7 3.8 3.8 1.5 277.3 270.7 0.00 0.0000000 56.9
2021-02-23 19:00:00 64.6 6.5 -2.4 64.6 0.8 3.8 1.0 199.8 251.7 0.00 0.0000000 56.9
2021-02-23 19:05:00 64.2 6.8 -1.9 64.2 0.0 2.4 1.1 240.8 252.9 0.00 0.0000000 56.9
2021-02-23 19:10:00 64.0 7.0 -1.5 64.0 0.0 0.0 0.0 24.2 0.0 0.00 0.0000000 56.8
2021-02-23 19:15:00 63.1 8.2 1.2 63.1 1.9 2.6 0.5 7.3 21.3 0.00 0.0000000 56.8
2021-02-23 19:20:00 62.7 7.8 -0.1 62.7 2.6 4.0 2.7 323.6 341.7 0.00 0.0000000 56.7
2021-02-23 19:25:00 62.7 7.7 -0.5 62.7 1.5 3.7 2.6 330.1 335.4 0.00 0.0000000 56.7
2021-02-23 19:30:00 62.0 8.5 1.2 62.0 0.0 1.5 0.1 324.2 320.9 0.00 0.0000000 56.6
2021-02-23 19:35:00 61.1 8.4 0.2 61.1 0.0 0.0 0.0 21.1 0.0 0.00 0.0000000 56.6
2021-02-23 19:40:00 60.8 8.9 1.3 60.8 1.9 3.0 1.0 329.4 327.5 0.00 0.0000000 56.5
2021-02-23 19:45:00 61.0 8.5 0.4 61.0 1.2 2.6 1.8 60.0 344.6 0.00 0.0000000 56.5
2021-02-23 19:50:00 61.3 8.7 1.1 61.3 0.0 2.2 0.9 338.0 2.0 0.00 0.0000000 56.4
2021-02-23 19:55:00 60.8 8.7 0.9 60.8 0.0 3.1 1.3 0.4 337.6 0.00 0.0000000 56.3
2021-02-23 20:00:00 60.4 8.7 0.6 60.4 1.9 3.3 1.7 21.1 341.1 0.00 0.0000000 56.3
2021-02-23 20:05:00 60.1 9.0 1.0 60.1 0.0 1.2 0.2 69.5 14.5 0.00 0.0000000 56.2
2021-02-23 20:10:00 59.6 9.5 1.6 59.6 0.0 1.3 0.1 53.0 39.2 0.00 0.0000000 56.1
2021-02-23 20:15:00 59.6 9.4 1.5 59.6 0.0 2.1 0.6 50.2 40.5 0.00 0.0000000 56.1
2021-02-23 20:20:00 59.7 9.4 1.5 59.7 1.3 2.6 1.5 42.3 32.3 0.00 0.0000000 56.0
2021-02-23 20:25:00 59.3 9.6 1.7 59.3 0.0 1.9 0.6 38.5 45.4 0.00 0.0000000 55.9
2021-02-23 20:30:00 58.9 10.7 3.8 58.9 0.0 0.0 0.0 292.8 0.0 0.00 0.0000000 55.8
2021-02-23 20:35:00 58.0 10.7 3.2 58.0 0.8 0.8 0.1 8.3 12.7 0.00 0.0000020 55.8
2021-02-23 20:40:00 57.7 10.8 3.2 57.7 0.0 0.8 0.1 0.0 24.0 0.00 0.0000000 55.7
2021-02-23 20:45:00 57.4 10.8 2.8 57.4 0.0 1.0 0.1 40.4 15.5 0.00 0.0000000 55.6
2021-02-23 20:50:00 57.0 10.6 2.1 57.0 0.0 0.0 0.0 76.6 0.0 0.00 0.0000000 55.5
2021-02-23 20:55:00 55.8 13.2 5.9 55.8 0.0 1.7 0.3 203.7 189.8 0.00 0.0000000 55.5
2021-02-23 21:00:00 54.6 12.9 4.5 54.6 0.0 0.0 0.0 170.6 0.0 0.00 0.0000000 55.4
2021-02-23 21:05:00 54.0 13.0 4.2 54.0 0.0 0.0 0.0 183.5 0.0 0.00 0.0000000 55.3
2021-02-23 21:10:00 53.5 13.4 4.5 53.5 0.0 0.0 0.0 211.0 0.0 0.00 0.0000000 55.2
2021-02-23 21:15:00 52.8 14.1 5.0 52.8 0.0 0.0 0.0 211.0 0.0 0.00 0.0000020 55.1
2021-02-23 21:20:00 52.1 13.5 3.5 52.1 0.0 0.0 0.0 211.0 0.0 0.00 0.0000000 55.0
2021-02-23 21:25:00 52.0 14.1 4.4 52.0 0.0 0.0 0.0 118.8 0.0 0.00 0.0000000 55.0
2021-02-23 21:30:00 51.9 14.4 4.8 51.9 0.0 0.0 0.0 63.3 0.0 0.00 0.0000020 54.9
2021-02-23 21:35:00 51.8 14.0 4.0 51.8 0.0 0.0 0.0 87.9 0.0 0.00 0.0000000 54.8
2021-02-23 21:40:00 51.8 14.3 4.4 51.8 0.0 0.0 0.0 121.4 0.0 0.00 0.0000000 54.7
2021-02-23 21:45:00 50.8 17.8 8.6 50.8 0.0 0.0 0.0 146.0 0.0 0.00 0.0000000 54.6
2021-02-23 21:50:00 49.7 18.5 8.4 49.7 0.0 0.0 0.0 174.7 0.0 0.00 0.0000000 54.6
2021-02-23 21:55:00 49.1 18.8 8.3 49.1 0.0 0.0 0.0 102.6 0.0 0.00 0.0000000 54.4
2021-02-23 22:00:00 48.3 18.9 7.8 48.3 0.0 0.0 0.0 97.2 0.0 0.00 0.0000000 54.4
2021-02-23 22:05:00 48.0 18.5 7.0 48.0 0.0 0.0 0.0 79.7 0.0 0.00 0.0000000 54.3
2021-02-23 22:10:00 48.4 18.4 7.2 48.4 0.0 0.0 0.0 82.6 0.0 0.00 0.0000020 54.2
2021-02-23 22:15:00 48.5 18.2 7.2 48.5 0.0 0.0 0.0 83.6 0.0 0.00 0.0000040 54.1
2021-02-23 22:20:00 48.2 18.7 7.5 48.2 0.0 0.0 0.0 90.7 0.0 0.00 0.0000020 54.1
2021-02-23 22:25:00 48.1 18.6 7.2 48.1 0.0 0.0 0.0 99.0 0.0 0.00 0.0000020 54.0
2021-02-23 22:30:00 48.1 19.6 8.3 48.1 0.0 0.0 0.0 100.2 0.0 0.00 0.0000000 53.9
2021-02-23 22:35:00 47.4 19.5 7.8 47.4 0.0 0.0 0.0 100.1 0.0 0.00 0.0000020 53.8
2021-02-23 22:40:00 47.0 20.3 8.3 47.0 0.0 0.0 0.0 324.3 0.0 0.00 0.0000020 53.7
2021-02-23 22:45:00 46.7 20.8 8.5 46.7 0.0 0.8 0.0 24.8 311.1 0.00 0.0000040 53.6
2021-02-23 22:50:00 46.3 20.7 8.2 46.3 0.0 0.0 0.0 11.4 0.0 0.00 0.0000000 53.6
2021-02-23 22:55:00 46.2 21.4 8.8 46.2 0.0 0.0 0.0 11.5 0.0 0.00 0.0000020 53.5
2021-02-23 23:00:00 45.3 21.1 7.7 45.3 0.0 0.0 0.0 11.6 0.0 0.00 0.0000040 53.4
2021-02-23 23:05:00 45.3 22.6 9.3 45.3 0.0 0.0 0.0 11.6 0.0 0.00 0.0000000 53.3
2021-02-23 23:10:00 44.8 23.4 9.6 44.8 0.0 0.0 0.0 173.5 0.0 0.00 0.0000080 53.2
2021-02-23 23:15:00 44.7 23.5 9.6 44.7 0.0 0.0 0.0 123.2 0.0 0.00 0.0000040 53.2
2021-02-23 23:20:00 44.0 23.8 9.3 44.0 0.0 0.0 0.0 204.8 0.0 0.00 0.0000060 53.1
2021-02-23 23:25:00 43.6 23.6 8.8 43.6 0.0 0.0 0.0 25.2 0.0 0.00 0.0000020 53.0
2021-02-23 23:30:00 43.7 24.0 9.1 43.7 0.0 0.0 0.0 312.5 0.0 0.00 0.0000000 52.9
2021-02-23 23:35:00 43.5 24.0 9.1 43.5 0.0 0.0 0.0 312.5 0.0 0.00 0.0000020 52.8
2021-02-23 23:40:00 43.4 24.2 9.1 43.4 0.0 0.0 0.0 312.4 0.0 0.00 0.0000040 52.7
2021-02-23 23:45:00 43.1 26.0 10.5 43.1 0.0 0.0 0.0 184.3 0.0 0.00 0.0000000 52.7
2021-02-23 23:50:00 42.4 25.6 9.6 42.4 0.0 0.0 0.0 184.5 0.0 0.00 0.0000040 52.6
2021-02-23 23:55:00 42.5 27.6 11.3 42.5 0.0 0.0 0.0 156.8 0.0 0.00 0.0000020 52.5
2021-02-24 00:00:00 42.1 26.4 10.0 42.1 0.0 0.0 0.0 151.0 0.0 0.00 0.0000000 52.4

Data is courtesy of the NM Climate Center. DO NOT USE IN LEGAL PROCEEDINGS.